Time;durP1;ratioP1;P1;durP2;ratioP2;P2;SDS_P1;SDS_P2;PMS_P1;PMS_P2;Temp;Humidity;BMP_temperature;BMP_pressure;BME280_temperature;BME280_humidity;BME280_pressure;Samples;Min_cycle;Max_cycle;Signal;HPM_P1;HPM_P2
2023/05/10 00:00:22;;;;;;;15.27;9.80;;;;;;;9.45;67.17;99645.03;5111838;28;20118;-79
2023/05/10 00:02:47;;;;;;;13.85;9.07;;;;;;;9.29;67.01;99600.66;5111985;28;20379;-79
2023/05/10 00:05:13;;;;;;;12.52;8.63;;;;;;;9.43;67.46;99641.66;5112395;28;20031;-79
2023/05/10 00:07:38;;;;;;;11.10;8.50;;;;;;;9.51;67.29;99649.97;5111610;28;20479;-79
2023/05/10 00:10:04;;;;;;;17.65;9.77;;;;;;;9.24;67.17;99593.06;5112390;28;20035;-79
2023/05/10 00:12:29;;;;;;;15.43;8.40;;;;;;;9.46;67.86;99644.13;5115814;28;20039;-79
2023/05/10 00:14:55;;;;;;;13.75;8.90;;;;;;;9.24;67.84;99615.59;5116042;28;20024;-79
2023/05/10 00:17:20;;;;;;;14.25;9.13;;;;;;;9.43;68.06;99659.84;5115576;28;20019;-79
2023/05/10 00:19:45;;;;;;;11.50;7.35;;;;;;;9.20;67.90;99625.28;5115803;28;20058;-79
2023/05/10 00:22:11;;;;;;;14.15;9.05;;;;;;;9.37;68.03;99650.56;5115672;28;20034;-79
2023/05/10 00:24:36;;;;;;;12.48;8.20;;;;;;;9.24;68.11;99626.84;5115909;28;20037;-79
2023/05/10 00:27:03;;;;;;;13.82;9.07;;;;;;;9.22;68.17;99638.19;5115931;28;20023;-79
2023/05/10 00:29:29;;;;;;;13.73;9.02;;;;;;;9.13;68.42;99618.63;5115597;28;20041;-79
2023/05/10 00:31:54;;;;;;;14.05;9.05;;;;;;;9.29;68.37;99636.19;5115599;28;20331;-79
2023/05/10 00:34:20;;;;;;;16.00;9.82;;;;;;;9.10;68.47;99621.38;5115101;28;20038;-79
2023/05/10 00:36:45;;;;;;;12.07;8.30;;;;;;;9.06;68.62;99608.53;5115483;28;20085;-79
2023/05/10 00:39:11;;;;;;;13.32;8.00;;;;;;;9.37;68.54;99649.72;5115254;28;20059;-79
2023/05/10 00:41:36;;;;;;;15.80;8.73;;;;;;;9.23;68.47;99626.91;5115306;28;20062;-79
2023/05/10 00:44:01;;;;;;;10.90;8.13;;;;;;;9.12;68.91;99629.09;5115650;28;20027;-79
2023/05/10 00:46:27;;;;;;;12.75;8.10;;;;;;;8.90;69.08;99603.16;5114989;28;20020;-79
2023/05/10 00:48:53;;;;;;;12.77;8.38;;;;;;;9.19;68.98;99646.13;5115320;28;20062;-79
2023/05/10 00:51:19;;;;;;;15.07;8.50;;;;;;;8.94;69.08;99618.53;5115185;28;20527;-79
2023/05/10 00:53:49;;;;;;;18.13;8.30;;;;;;;9.06;69.17;99626.72;5115415;28;20059;-79
2023/05/10 00:56:15;;;;;;;12.27;8.63;;;;;;;8.67;69.43;99578.94;5115312;28;20038;-79
2023/05/10 00:58:40;;;;;;;14.05;9.63;;;;;;;8.94;69.53;99620.31;5114775;28;20035;-79
2023/05/10 01:01:07;;;;;;;17.13;10.07;;;;;;;8.80;69.72;99599.22;5114935;28;20024;-79
2023/05/10 01:03:33;;;;;;;18.88;10.10;;;;;;;8.96;69.81;99627.09;5114651;28;20027;-79
2023/05/10 01:05:59;;;;;;;14.68;9.60;;;;;;;8.79;69.91;99597.53;5114763;28;20020;-79
2023/05/10 01:08:25;;;;;;;13.00;9.00;;;;;;;8.95;69.60;99614.19;5115006;28;20115;-79
2023/05/10 01:10:52;;;;;;;14.48;9.45;;;;;;;8.94;69.84;99625.50;5114883;28;20039;-79
2023/05/10 01:13:30;;;;;;;15.80;8.63;;;;;;;8.72;70.14;99592.59;5114877;28;20088;-79
2023/05/10 01:15:56;;;;;;;14.80;8.75;;;;;;;8.92;70.18;99633.31;5114795;28;20111;-79
2023/05/10 01:18:21;;;;;;;12.15;8.48;;;;;;;8.68;70.52;99592.75;5114290;28;20102;-79
2023/05/10 01:20:52;;;;;;;13.25;8.57;;;;;;;8.69;70.46;99597.91;5114897;28;20019;-79
2023/05/10 01:23:42;;;;;;;12.52;8.60;;;;;;;8.84;70.32;99613.78;5114688;28;20034;-79
2023/05/10 01:26:48;;;;;;;12.23;8.65;;;;;;;8.70;70.62;99604.78;5114818;28;20439;-79
2023/05/10 01:29:32;;;;;;;13.10;8.65;;;;;;;8.81;70.88;99627.75;5114867;28;20042;-79
2023/05/10 01:32:06;;;;;;;13.88;8.80;;;;;;;8.80;70.99;99627.78;5114398;28;20024;-79
2023/05/10 01:34:57;;;;;;;16.42;9.82;;;;;;;8.73;70.78;99625.44;5114095;28;20047;-79
2023/05/10 01:37:39;;;;;;;12.10;9.20;;;;;;;8.79;71.28;99632.13;5114132;28;20046;-79
2023/05/10 01:40:18;;;;;;;11.00;8.10;;;;;;;8.65;71.59;99624.06;5114387;28;20494;-79
2023/05/10 01:42:51;;;;;;;15.77;8.88;;;;;;;8.63;71.47;99618.06;5113972;28;20031;-79
2023/05/10 01:45:31;;;;;;;14.35;8.73;;;;;;;8.63;71.63;99626.69;5114490;28;20035;-79
2023/05/10 01:48:09;;;;;;;12.18;8.73;;;;;;;8.67;71.69;99622.22;5114239;28;20023;-79
2023/05/10 01:50:36;;;;;;;17.50;9.75;;;;;;;8.66;71.59;99629.16;5113805;28;20028;-79
2023/05/10 01:53:05;;;;;;;17.38;8.75;;;;;;;8.60;71.95;99607.81;5114015;28;20027;-79
2023/05/10 01:55:35;;;;;;;15.25;8.35;;;;;;;8.59;71.72;99627.72;5113605;28;20524;-79
2023/05/10 01:58:06;;;;;;;14.13;8.75;;;;;;;8.63;71.80;99623.25;5113657;28;20030;-79
2023/05/10 02:00:33;;;;;;;16.73;9.38;;;;;;;8.36;72.22;99589.66;5113730;28;20054;-79
2023/05/10 02:03:01;;;;;;;13.63;8.55;;;;;;;8.49;72.74;99624.63;5113947;28;20395;-79
2023/05/10 02:05:29;;;;;;;14.55;8.80;;;;;;;8.49;72.36;99619.44;5113619;28;20035;-79
2023/05/10 02:07:56;;;;;;;13.65;9.23;;;;;;;8.54;72.42;99626.22;5113838;28;20024;-79
2023/05/10 02:10:22;;;;;;;15.25;9.18;;;;;;;8.31;72.59;99588.16;5113931;28;20546;-79
2023/05/10 02:12:48;;;;;;;12.40;9.07;;;;;;;8.33;72.66;99594.09;5113597;28;20023;-79
2023/05/10 02:15:23;;;;;;;16.05;9.23;;;;;;;8.35;72.48;99594.91;5113687;28;20023;-79
2023/05/10 02:17:49;;;;;;;10.55;8.30;;;;;;;8.18;72.75;99583.41;5113804;28;20027;-79
2023/05/10 02:20:16;;;;;;;11.23;8.70;;;;;;;8.35;73.05;99594.91;5113844;28;20035;-79
2023/05/10 02:22:44;;;;;;;14.75;8.57;;;;;;;8.30;72.97;99576.91;5113215;28;20055;-79
2023/05/10 02:25:13;;;;;;;13.32;8.32;;;;;;;8.45;73.01;99599.69;5113202;28;20035;-79
2023/05/10 02:27:40;;;;;;;13.13;8.20;;;;;;;8.36;72.93;99600.03;5113456;28;20407;-79
2023/05/10 02:30:07;;;;;;;15.13;8.52;;;;;;;8.34;72.61;99581.06;5113691;28;20031;-79
2023/05/10 02:32:34;;;;;;;13.05;8.68;;;;;;;8.31;72.95;99569.97;5112763;28;20024;-79
2023/05/10 02:35:02;;;;;;;11.52;7.82;;;;;;;8.42;73.07;99598.97;5112940;28;20044;-79
2023/05/10 02:37:28;;;;;;;13.32;8.65;;;;;;;8.20;73.37;99572.97;5112857;28;20019;-79
2023/05/10 02:39:55;;;;;;;10.13;7.75;;;;;;;8.02;73.27;99568.47;5113254;28;20024;-79
2023/05/10 02:42:26;;;;;;;10.80;8.23;;;;;;;8.00;73.74;99555.56;5113211;28;20023;-79
2023/05/10 02:44:55;;;;;;;10.15;8.05;;;;;;;8.12;73.48;99575.84;5112759;28;20028;-79
2023/05/10 02:47:20;;;;;;;11.10;7.85;;;;;;;8.27;73.73;99605.56;5112819;28;20522;-79
2023/05/10 02:49:47;;;;;;;11.57;7.93;;;;;;;8.28;73.89;99598.63;5112710;28;20030;-79
2023/05/10 02:52:19;;;;;;;11.90;8.02;;;;;;;7.95;73.86;99557.47;5112736;28;20555;-79
2023/05/10 02:54:48;;;;;;;11.63;7.78;;;;;;;8.17;73.85;99605.06;5112706;28;20023;-79
2023/05/10 02:57:18;;;;;;;17.80;11.10;;;;;;;8.27;73.60;99594.34;5112861;28;20047;-79
2023/05/10 02:59:44;;;;;;;12.82;9.00;;;;;;;8.08;73.91;99581.22;5112477;28;20032;-79
2023/05/10 03:02:11;;;;;;;12.48;8.18;;;;;;;8.20;74.19;99602.34;5112746;28;20486;-79
2023/05/10 03:04:36;;;;;;;11.80;7.88;;;;;;;8.08;73.78;99566.50;5112915;28;20038;-79
2023/05/10 03:07:02;;;;;;;9.57;7.70;;;;;;;8.06;73.77;99559.69;5112766;28;20020;-79
2023/05/10 03:09:28;;;;;;;11.95;7.75;;;;;;;8.25;73.82;99602.16;5112799;28;20110;-79
2023/05/10 03:12:05;;;;;;;12.38;7.85;;;;;;;7.99;73.73;99572.03;5112509;28;20023;-79
2023/05/10 03:15:08;;;;;;;10.02;7.05;;;;;;;8.19;73.91;99605.00;5112374;28;20034;-79
2023/05/10 03:17:41;;;;;;;13.43;7.93;;;;;;;7.92;74.11;99568.84;5112477;28;20028;-79
2023/05/10 03:20:09;;;;;;;12.18;7.47;;;;;;;8.14;73.99;99600.00;5112673;28;20050;-79
2023/05/10 03:22:40;;;;;;;11.00;7.85;;;;;;;7.99;74.31;99580.66;5112358;28;20024;-79
2023/05/10 03:25:08;;;;;;;13.55;8.18;;;;;;;8.13;74.45;99605.22;5112766;28;20034;-79
2023/05/10 03:27:36;;;;;;;11.35;8.10;;;;;;;8.04;74.33;99588.25;5093747;28;20027;-79
2023/05/10 03:30:02;;;;;;;10.77;7.60;;;;;;;7.95;74.30;99566.09;5112584;28;20493;-79
2023/05/10 03:32:30;;;;;;;13.13;7.40;;;;;;;8.16;74.38;99595.59;5112351;28;20032;-79
2023/05/10 03:34:55;;;;;;;13.73;7.88;;;;;;;7.90;74.54;99569.78;5112265;28;20051;-79
2023/05/10 03:37:21;;;;;;;11.55;8.05;;;;;;;8.04;74.42;99584.81;5112305;28;20024;-79
2023/05/10 03:39:46;;;;;;;15.23;8.93;;;;;;;8.18;74.28;99598.97;5111881;28;20386;-79
2023/05/10 03:42:11;;;;;;;10.50;7.55;;;;;;;7.95;74.30;99565.25;5112080;28;20475;-79
2023/05/10 03:44:40;;;;;;;10.60;8.18;;;;;;;8.08;74.63;99582.06;5112146;28;20028;-79
2023/05/10 03:47:05;;;;;;;14.80;8.02;;;;;;;8.13;74.26;99579.28;5116166;28;20043;-79
2023/05/10 03:49:31;;;;;;;11.45;8.38;;;;;;;8.20;73.99;99598.91;5116182;28;20032;-79
2023/05/10 03:51:56;;;;;;;12.13;7.68;;;;;;;8.01;74.28;99557.28;5116344;28;20035;-79
2023/05/10 03:54:22;;;;;;;12.32;7.80;;;;;;;8.09;74.56;99568.22;5116238;28;20035;-79
2023/05/10 03:56:47;;;;;;;13.13;8.00;;;;;;;8.32;74.02;99593.25;5115937;28;20053;-79
2023/05/10 03:59:13;;;;;;;13.27;7.88;;;;;;;8.22;73.88;99550.44;5116319;28;20028;-79
2023/05/10 04:01:38;;;;;;;11.60;7.75;;;;;;;8.33;73.55;99557.78;5116078;28;20073;-79
2023/05/10 04:04:04;;;;;;;14.85;8.27;;;;;;;8.70;72.67;99593.56;5116159;28;20023;-79
2023/05/10 04:06:29;;;;;;;10.05;7.53;;;;;;;8.83;72.05;99566.19;5116047;28;20073;-79
2023/05/10 04:08:55;;;;;;;15.15;11.70;;;;;;;9.29;70.25;99553.03;5115715;28;20038;-79
2023/05/10 04:11:21;;;;;;;11.52;7.93;;;;;;;10.26;67.91;99549.56;5115904;28;20027;-79
2023/05/10 04:13:47;;;;;;;10.25;8.07;;;;;;;11.44;64.64;99573.28;5115892;28;20410;-80
2023/05/10 04:16:12;;;;;;;10.85;7.25;;;;;;;11.99;62.33;99552.16;5115830;28;20028;-80
2023/05/10 04:18:37;;;;;;;13.23;7.90;;;;;;;12.02;61.67;99559.81;5115552;28;20020;-80
2023/05/10 04:21:03;;;;;;;12.18;7.85;;;;;;;11.80;61.95;99578.38;5115771;28;20030;-80
2023/05/10 04:23:28;;;;;;;13.00;9.23;;;;;;;11.32;62.88;99561.72;5115702;28;20028;-79
2023/05/10 04:25:59;;;;;;;11.82;8.50;;;;;;;11.60;62.93;99579.41;5115406;28;20030;-79
2023/05/10 04:28:25;;;;;;;12.27;8.38;;;;;;;11.69;62.54;99567.63;5115795;28;20038;-79
2023/05/10 04:30:51;;;;;;;17.38;13.70;;;;;;;11.84;61.86;99572.09;5115464;28;20027;-79
2023/05/10 04:33:16;;;;;;;25.67;16.42;;;;;;;12.41;60.53;99555.94;5115631;28;20020;-79
2023/05/10 04:35:41;;;;;;;15.63;12.70;;;;;;;13.29;58.77;99557.88;5115072;28;20039;-79
2023/05/10 04:38:06;;;;;;;11.93;8.00;;;;;;;13.79;56.65;99551.38;5115400;28;20169;-79
2023/05/10 04:40:32;;;;;;;10.98;7.32;;;;;;;14.59;55.02;99569.97;5115333;28;20446;-79
2023/05/10 04:42:57;;;;;;;10.48;7.13;;;;;;;14.50;54.90;99539.97;5115244;28;20492;-79
2023/05/10 04:45:23;;;;;;;11.23;7.28;;;;;;;14.22;55.66;99580.97;5115282;28;20030;-79
2023/05/10 04:47:48;;;;;;;10.82;7.80;;;;;;;13.80;56.58;99573.16;5115146;28;20016;-79
2023/05/10 04:50:13;;;;;;;10.10;7.00;;;;;;;13.10;57.46;99550.22;5115504;28;20088;-80
2023/05/10 04:52:38;;;;;;;11.43;6.78;;;;;;;13.28;57.37;99550.13;5114985;28;20073;-80
2023/05/10 04:55:04;;;;;;;10.77;8.00;;;;;;;13.62;56.93;99548.94;5115619;28;20028;-80
2023/05/10 04:57:30;;;;;;;13.40;7.47;;;;;;;14.22;55.94;99583.59;5114792;28;20019;-80
2023/05/10 04:59:55;;;;;;;10.57;7.65;;;;;;;15.41;53.57;99566.28;5114998;28;20057;-79
2023/05/10 05:02:20;;;;;;;10.35;7.38;;;;;;;16.36;51.60;99578.06;5115109;28;20051;-80
2023/05/10 05:04:46;;;;;;;14.57;6.97;;;;;;;16.57;51.23;99578.31;5114757;28;20097;-80
2023/05/10 05:07:11;;;;;;;9.48;7.35;;;;;;;16.45;51.30;99569.53;5114897;28;20058;-80
2023/05/10 05:09:36;;;;;;;11.63;7.10;;;;;;;15.83;52.05;99549.38;5114915;28;20036;-80
2023/05/10 05:12:02;;;;;;;12.63;7.28;;;;;;;15.77;52.74;99572.63;5096567;28;20045;-80
2023/05/10 05:14:27;;;;;;;8.95;7.13;;;;;;;15.57;52.65;99553.78;5114730;28;20028;-80
2023/05/10 05:16:53;;;;;;;12.18;7.03;;;;;;;16.19;52.09;99574.84;5114310;28;20065;-80
2023/05/10 05:19:18;;;;;;;9.15;7.38;;;;;;;16.69;50.34;99575.63;5114648;28;20027;-80
2023/05/10 05:21:43;;;;;;;10.35;6.90;;;;;;;17.61;48.83;99552.09;5114465;28;20070;-80
2023/05/10 05:24:10;;;;;;;9.50;6.63;;;;;;;18.28;47.71;99524.91;5114436;28;20101;-80
2023/05/10 05:26:35;;;;;;;8.32;6.25;;;;;;;17.63;47.63;99544.94;5114661;28;20106;-80
2023/05/10 05:29:01;;;;;;;9.48;7.20;;;;;;;17.36;49.16;99584.72;5114314;28;20134;-80
2023/05/10 05:31:26;;;;;;;8.23;6.40;;;;;;;17.08;50.01;99559.66;5114447;28;20023;-80
2023/05/10 05:33:51;;;;;;;8.90;6.72;;;;;;;17.09;49.43;99556.09;5114160;28;20585;-80
2023/05/10 05:36:17;;;;;;;10.07;7.28;;;;;;;17.07;49.61;99544.84;5113999;28;20487;-80
2023/05/10 05:38:42;;;;;;;7.80;6.38;;;;;;;17.84;48.40;99553.84;5113976;28;20108;-80
2023/05/10 05:41:08;;;;;;;8.32;6.70;;;;;;;18.54;46.64;99555.28;5114154;28;20102;-80
2023/05/10 05:43:33;;;;;;;9.10;6.38;;;;;;;19.28;46.28;99573.81;5114314;28;20023;-80
2023/05/10 05:45:58;;;;;;;8.55;6.07;;;;;;;19.42;45.77;99575.28;5113912;28;20023;-80
2023/05/10 05:48:24;;;;;;;13.88;6.68;;;;;;;18.87;45.68;99550.88;5114166;28;20028;-80
2023/05/10 05:50:49;;;;;;;10.55;6.28;;;;;;;18.54;46.94;99557.94;5113871;28;20359;-80
2023/05/10 05:53:15;;;;;;;9.18;6.32;;;;;;;18.14;47.51;99569.03;5113898;28;20024;-80
2023/05/10 05:55:53;;;;;;;9.75;6.10;;;;;;;18.18;47.86;99578.38;5113934;28;20020;-80
2023/05/10 05:58:19;;;;;;;7.60;6.65;;;;;;;18.35;46.92;99545.38;5114048;28;20030;-80
2023/05/10 06:00:44;;;;;;;8.43;6.18;;;;;;;18.85;46.83;99553.66;5113643;28;20023;-80
2023/05/10 06:03:10;;;;;;;8.77;6.60;;;;;;;18.62;46.72;99563.41;5113852;28;20034;-80
2023/05/10 06:05:35;;;;;;;9.10;6.30;;;;;;;18.80;46.20;99541.81;5113780;28;20030;-80
2023/05/10 06:08:01;;;;;;;10.52;6.90;;;;;;;18.65;46.78;99586.91;5112413;28;20023;-80
2023/05/10 06:10:26;;;;;;;9.02;6.32;;;;;;;18.63;46.67;99585.38;5113838;28;20023;-80
2023/05/10 06:12:52;;;;;;;8.73;6.28;;;;;;;18.67;46.50;99547.22;5113379;28;20088;-80
2023/05/10 06:15:18;;;;;;;9.25;6.78;;;;;;;19.50;45.71;99553.53;5114108;28;20441;-80
2023/05/10 06:17:44;;;;;;;9.05;6.20;;;;;;;20.59;44.68;99601.28;5113294;28;20118;-80
2023/05/10 06:20:09;;;;;;;8.32;6.70;;;;;;;20.72;43.00;99552.56;5113494;28;20038;-80
2023/05/10 06:22:35;;;;;;;9.88;6.32;;;;;;;21.13;43.13;99589.34;5113131;28;20028;-80
2023/05/10 06:25:01;;;;;;;6.90;5.38;;;;;;;21.38;42.94;99564.13;5113043;28;20042;-80
2023/05/10 06:27:27;;;;;;;9.60;6.13;;;;;;;22.09;41.54;99579.50;5113503;28;20443;-80
2023/05/10 06:29:52;;;;;;;9.52;5.82;;;;;;;22.90;40.90;99581.44;5112991;28;20054;-80
2023/05/10 06:32:17;;;;;;;8.65;5.97;;;;;;;24.18;39.33;99577.28;5113563;28;20050;-80
2023/05/10 06:34:43;;;;;;;6.30;4.70;;;;;;;25.01;38.58;99554.19;5112862;28;20047;-80
2023/05/10 06:37:08;;;;;;;9.27;6.03;;;;;;;25.30;37.80;99560.88;5113112;28;20020;-81
2023/05/10 06:39:34;;;;;;;8.13;5.20;;;;;;;25.37;37.92;99575.22;5112976;28;20038;-79
2023/05/10 06:41:59;;;;;;;8.23;5.45;;;;;;;25.27;37.12;99563.88;5112924;28;20030;-79
2023/05/10 06:44:24;;;;;;;8.80;5.38;;;;;;;26.08;36.31;99557.53;5113101;28;20023;-79
2023/05/10 06:46:50;;;;;;;6.68;5.13;;;;;;;28.00;34.02;99542.13;5112633;28;20020;-79
2023/05/10 06:49:16;;;;;;;7.95;5.50;;;;;;;27.70;34.10;99541.28;5112921;28;20027;-79
2023/05/10 06:51:41;;;;;;;8.63;5.25;;;;;;;27.98;33.99;99546.84;5112791;28;20478;-79
2023/05/10 06:54:06;;;;;;;7.28;4.95;;;;;;;27.71;33.91;99556.34;5113080;28;20456;-79
2023/05/10 06:56:32;;;;;;;5.80;5.15;;;;;;;27.21;34.49;99552.47;5113463;28;20023;-79
2023/05/10 06:58:57;;;;;;;8.10;5.03;;;;;;;27.57;34.40;99565.19;5112414;28;20027;-79
2023/05/10 07:01:22;;;;;;;6.38;4.63;;;;;;;28.78;33.71;99570.06;5112788;28;20015;-79
2023/05/10 07:03:48;;;;;;;5.10;4.60;;;;;;;29.39;32.97;99566.88;5112365;28;20020;-79
2023/05/10 07:06:13;;;;;;;7.05;4.88;;;;;;;29.93;32.31;99555.47;5112591;28;20049;-79
2023/05/10 07:08:39;;;;;;;7.35;5.03;;;;;;;29.72;32.62;99552.91;5112803;28;20027;-79
2023/05/10 07:11:08;;;;;;;7.80;4.30;;;;;;;29.36;32.60;99543.13;5112405;28;20032;-79
2023/05/10 07:13:34;;;;;;;5.03;4.47;;;;;;;30.19;32.33;99544.06;5112551;28;20024;-79
2023/05/10 07:16:02;;;;;;;4.63;4.13;;;;;;;30.80;31.80;99551.25;5112110;28;20051;-79
2023/05/10 07:18:28;;;;;;;5.05;4.32;;;;;;;32.15;30.96;99557.09;5112308;28;20027;-79
2023/05/10 07:20:53;;;;;;;6.35;4.30;;;;;;;32.88;30.32;99557.56;5093477;28;20027;-79
2023/05/10 07:23:19;;;;;;;4.75;4.20;;;;;;;32.70;29.74;99558.31;5112354;28;20038;-79
2023/05/10 07:25:46;;;;;;;5.82;4.68;;;;;;;31.57;30.63;99520.22;5112297;28;20023;-79
2023/05/10 07:28:11;;;;;;;7.38;5.13;;;;;;;31.21;31.29;99550.25;5112588;28;20076;-79
2023/05/10 07:30:37;;;;;;;7.05;4.60;;;;;;;30.46;31.76;99509.19;5112478;28;20020;-79
2023/05/10 07:33:02;;;;;;;5.45;4.20;;;;;;;29.92;31.85;99535.03;5102050;28;20032;-80
2023/05/10 07:35:27;;;;;;;4.82;4.43;;;;;;;29.90;32.09;99542.44;5105135;28;20103;-80
2023/05/10 07:37:53;;;;;;;5.95;4.65;;;;;;;29.61;32.77;99548.88;5099805;28;20391;-79
2023/05/10 07:40:18;;;;;;;5.15;4.65;;;;;;;29.74;32.50;99532.03;5091604;28;20060;-79
2023/05/10 07:42:43;;;;;;;6.97;3.88;;;;;;;30.40;32.29;99520.75;5091942;28;20024;-79
2023/05/10 07:45:09;;;;;;;10.13;4.60;;;;;;;30.15;32.71;99537.41;5093870;28;20526;-79
2023/05/10 07:47:34;;;;;;;5.15;4.60;;;;;;;30.57;32.36;99530.91;5101531;28;20057;-80
2023/05/10 07:50:00;;;;;;;6.03;4.45;;;;;;;30.11;32.72;99527.25;5099307;28;20035;-80
2023/05/10 07:52:25;;;;;;;5.45;4.40;;;;;;;29.37;33.49;99485.78;5100954;28;20344;-80
2023/05/10 07:54:51;;;;;;;6.13;4.90;;;;;;;29.44;33.33;99536.78;5100973;28;20483;-80
2023/05/10 07:57:17;;;;;;;8.10;4.90;;;;;;;29.66;33.21;99529.50;5099760;28;20039;-80
2023/05/10 07:59:44;;;;;;;7.32;4.43;;;;;;;29.32;33.26;99523.06;5101015;28;20023;-79
2023/05/10 08:02:09;;;;;;;5.97;4.70;;;;;;;28.72;33.88;99489.56;5098739;28;20027;-79
2023/05/10 08:04:35;;;;;;;7.70;4.88;;;;;;;28.01;34.96;99516.19;5104757;28;20417;-79
2023/05/10 08:07:00;;;;;;;8.30;4.85;;;;;;;28.25;34.65;99505.16;5102075;28;20103;-80
2023/05/10 08:09:25;;;;;;;5.57;4.97;;;;;;;28.35;35.32;99540.50;5094372;28;20028;-81
2023/05/10 08:11:51;;;;;;;6.38;5.38;;;;;;;28.27;34.79;99483.53;5091201;28;20044;-80
2023/05/10 08:14:16;;;;;;;5.85;4.47;;;;;;;28.46;34.95;99528.50;5091423;28;20035;-80
2023/05/10 08:16:42;;;;;;;5.95;4.38;;;;;;;28.60;35.05;99519.56;5091324;28;20089;-82
2023/05/10 08:19:07;;;;;;;5.53;4.20;;;;;;;27.58;35.81;99516.84;5090980;28;20028;-80
2023/05/10 08:21:32;;;;;;;8.32;3.97;;;;;;;27.81;36.35;99526.63;5091210;28;20023;-80
2023/05/10 08:23:58;;;;;;;5.18;4.68;;;;;;;27.61;36.72;99491.56;5091030;28;20024;-80
2023/05/10 08:26:23;;;;;;;8.18;4.60;;;;;;;26.94;36.88;99473.69;5091572;28;20050;-80
2023/05/10 08:28:48;;;;;;;6.75;4.88;;;;;;;25.10;39.46;99525.75;5091717;28;20039;-80
2023/05/10 08:31:15;;;;;;;7.53;4.55;;;;;;;23.31;41.97;99526.81;5092059;28;20024;-80
2023/05/10 08:33:41;;;;;;;6.55;4.38;;;;;;;21.88;43.88;99483.44;5095111;28;20032;-80
2023/05/10 08:36:06;;;;;;;5.93;4.93;;;;;;;21.33;45.13;99480.75;5076553;28;20658;-80
2023/05/10 08:38:32;;;;;;;6.25;4.38;;;;;;;21.25;45.97;99510.56;5095115;28;20020;-80
2023/05/10 08:40:58;;;;;;;5.82;4.57;;;;;;;21.02;46.37;99486.22;5094916;28;20475;-80
2023/05/10 08:43:28;;;;;;;6.72;4.80;;;;;;;20.03;47.19;99487.28;5095235;28;20047;-80
2023/05/10 08:45:55;;;;;;;8.65;4.78;;;;;;;19.73;48.12;99486.38;5094770;28;20082;-79
2023/05/10 08:48:24;;;;;;;5.80;4.70;;;;;;;19.69;48.60;99488.44;5095424;28;20453;-80
2023/05/10 08:50:52;;;;;;;7.88;4.90;;;;;;;19.48;48.90;99494.72;5094792;28;20106;-80
2023/05/10 08:53:19;;;;;;;6.55;4.93;;;;;;;19.32;49.19;99481.97;5095205;28;20146;-80
2023/05/10 08:55:45;;;;;;;4.70;4.15;;;;;;;19.20;50.27;99453.00;5094795;28;20024;-80
2023/05/10 08:58:11;;;;;;;6.68;4.50;;;;;;;19.66;49.96;99493.16;5094529;28;20107;-79
2023/05/10 09:00:37;;;;;;;6.70;4.75;;;;;;;19.69;49.29;99506.94;5094662;28;20107;-79
2023/05/10 09:03:04;;;;;;;8.65;4.80;;;;;;;19.61;49.51;99501.47;5094209;28;20475;-80
2023/05/10 09:05:29;;;;;;;6.10;4.50;;;;;;;19.53;49.48;99511.84;5094700;28;20042;-80
2023/05/10 09:07:55;;;;;;;4.95;4.43;;;;;;;19.31;49.81;99499.63;5094647;28;20028;-79
2023/05/10 09:10:21;;;;;;;4.68;3.78;;;;;;;19.35;50.33;99466.72;5094570;28;20032;-79
2023/05/10 09:12:48;;;;;;;5.68;4.25;;;;;;;19.89;49.02;99492.00;5094445;28;20020;-80
2023/05/10 09:15:15;;;;;;;5.45;3.95;;;;;;;19.66;48.75;99498.44;5094201;28;20028;-79
2023/05/10 09:17:43;;;;;;;6.57;4.75;;;;;;;19.24;49.38;99487.91;5094149;28;20028;-80
2023/05/10 09:20:09;;;;;;;5.95;4.70;;;;;;;18.86;50.69;99465.59;5094476;28;20028;-79
2023/05/10 09:22:34;;;;;;;5.40;3.80;;;;;;;19.10;50.68;99478.53;5094582;28;20026;-80
2023/05/10 09:25:19;;;;;;;5.68;4.20;;;;;;;19.11;50.70;99477.56;5094082;28;20028;-80
2023/05/10 09:27:46;;;;;;;5.65;4.25;;;;;;;19.23;49.42;99488.88;5094181;28;20020;-79
2023/05/10 09:30:31;;;;;;;5.88;3.80;;;;;;;19.44;49.57;99500.25;5093579;28;20442;-80
2023/05/10 09:32:58;;;;;;;5.72;3.40;;;;;;;19.40;49.17;99483.00;5093473;28;20042;-80
2023/05/10 09:35:30;;;;;;;4.75;4.25;;;;;;;19.59;49.04;99507.81;5093956;28;20044;-80
2023/05/10 09:38:00;;;;;;;7.00;3.88;;;;;;;19.49;48.96;99478.72;5075473;28;20028;-79
2023/05/10 09:40:27;;;;;;;4.95;3.20;;;;;;;19.76;48.50;99487.88;5093673;28;20377;-79
2023/05/10 09:43:07;;;;;;;5.00;3.78;;;;;;;19.66;48.51;99490.50;5093677;28;20016;-79
2023/05/10 09:45:33;;;;;;;5.47;3.53;;;;;;;19.68;49.04;99476.22;5093766;28;20119;-79
2023/05/10 09:48:01;;;;;;;3.47;3.17;;;;;;;20.05;48.60;99520.53;5093555;28;20073;-79
2023/05/10 09:50:27;;;;;;;8.13;3.85;;;;;;;19.78;48.30;99513.22;5093633;28;20043;-80
2023/05/10 09:52:54;;;;;;;7.70;3.63;;;;;;;19.52;48.32;99511.97;5093862;28;20459;-79
2023/05/10 09:55:39;;;;;;;6.10;4.00;;;;;;;19.42;49.82;99494.28;5093902;28;20380;-79
2023/05/10 09:58:09;;;;;;;8.15;4.47;;;;;;;19.34;49.93;99483.53;5093409;28;20020;-79
2023/05/10 10:00:38;;;;;;;7.72;3.35;;;;;;;19.50;50.50;99511.25;5093489;28;20027;-79
2023/05/10 10:03:04;;;;;;;5.18;3.65;;;;;;;19.68;50.18;99494.69;5093205;28;20027;-79
2023/05/10 10:05:33;;;;;;;6.22;3.72;;;;;;;19.91;48.59;99495.31;5075060;28;20092;-79
2023/05/10 10:08:00;;;;;;;8.50;4.22;;;;;;;19.67;48.14;99471.03;5093225;28;20036;-79
2023/05/10 10:10:26;;;;;;;7.85;3.95;;;;;;;19.56;48.10;99484.34;5075119;28;20028;-79
2023/05/10 10:12:52;;;;;;;3.92;2.90;;;;;;;19.52;49.18;99504.88;5093295;28;20094;-80
2023/05/10 10:15:18;;;;;;;5.22;3.45;;;;;;;19.35;49.12;99473.81;5093028;28;20407;-79
2023/05/10 10:17:44;;;;;;;4.72;3.22;;;;;;;19.34;47.96;99474.75;5093059;28;20026;-80
2023/05/10 10:20:10;;;;;;;7.47;3.65;;;;;;;19.24;48.33;99456.22;5092853;28;20032;-79
2023/05/10 10:22:37;;;;;;;3.72;3.30;;;;;;;19.41;48.18;99444.22;5093100;28;20471;-80
2023/05/10 10:25:03;;;;;;;4.75;3.60;;;;;;;19.57;48.43;99422.59;5092847;28;20047;-80
2023/05/10 10:27:53;;;;;;;8.23;3.47;;;;;;;19.93;47.98;99481.97;5093029;28;20020;-80
2023/05/10 10:30:41;;;;;;;4.80;3.35;;;;;;;20.03;48.14;99472.25;5092605;28;20209;-80
2023/05/10 10:33:40;;;;;;;4.15;3.38;;;;;;;20.08;48.12;99479.78;5093049;28;20023;-79
2023/05/10 10:36:06;;;;;;;4.78;3.50;;;;;;;19.99;48.60;99454.16;5010049;28;20205;-79
2023/05/10 10:38:47;;;;;;;5.28;3.25;;;;;;;20.06;48.17;99489.66;5010436;28;20030;-80
2023/05/10 10:41:34;;;;;;;7.40;4.00;;;;;;;19.79;48.28;99472.59;5010019;28;20050;-79
2023/05/10 10:44:30;;;;;;;4.78;3.95;;;;;;;19.77;47.85;99489.59;5010267;28;20022;-79
2023/05/10 10:47:23;;;;;;;8.20;3.85;;;;;;;19.97;47.90;99480.72;5009914;28;20041;-80
2023/05/10 10:50:00;;;;;;;5.43;3.70;;;;;;;20.10;47.98;99470.75;4990533;28;20519;-80
2023/05/10 10:52:41;;;;;;;8.95;4.30;;;;;;;20.24;48.50;99472.16;4990493;28;20034;-80
2023/05/10 10:55:08;;;;;;;4.55;3.42;;;;;;;20.26;47.86;99479.94;4989956;28;20042;-79
2023/05/10 10:57:59;;;;;;;3.63;3.28;;;;;;;19.98;47.60;99440.13;4990512;28;20092;-79
2023/05/10 11:00:30;;;;;;;;;;;;;;;20.10;48.07;99465.47;4990970;28;20101;-79
2023/05/10 11:02:56;;;;;;;3.90;3.25;;;;;;;20.17;48.40;99471.03;4990410;28;20358;-80
2023/05/10 11:05:45;;;;;;;5.60;4.18;;;;;;;19.99;48.82;99476.16;4990325;28;20158;-80
2023/05/10 11:08:32;;;;;;;6.47;3.63;;;;;;;19.94;48.27;99468.63;4990030;28;20501;-80
2023/05/10 11:11:00;;;;;;;4.40;3.97;;;;;;;20.09;47.71;99470.88;4990180;28;20030;-79
2023/05/10 11:13:46;;;;;;;5.35;3.38;;;;;;;20.10;48.18;99441.66;5026022;28;20128;-79
2023/05/10 11:16:18;;;;;;;4.97;3.20;;;;;;;20.40;47.88;99469.81;5029605;28;20033;-80
2023/05/10 11:18:53;;;;;;;4.18;3.67;;;;;;;20.33;47.13;99465.19;5029531;28;20124;-80
2023/05/10 11:21:18;;;;;;;3.17;2.88;;;;;;;20.40;47.54;99437.22;5029326;28;20041;-80
2023/05/10 11:23:48;;;;;;;3.72;3.35;;;;;;;20.53;47.06;99466.91;5029534;28;20037;-80
2023/05/10 11:26:14;;;;;;;4.13;3.13;;;;;;;20.35;47.43;99437.66;5045290;28;20028;-80
2023/05/10 11:28:47;;;;;;;5.40;3.25;;;;;;;20.63;47.31;99453.69;5092049;28;20107;-80
2023/05/10 11:31:16;;;;;;;3.47;3.17;;;;;;;20.66;47.06;99450.75;5091980;28;20031;-80
2023/05/10 11:33:46;;;;;;;3.83;3.42;;;;;;;20.82;46.68;99452.84;5092127;28;20039;-80
2023/05/10 11:36:19;;;;;;;5.97;3.45;;;;;;;20.90;46.84;99437.09;5091480;28;20052;-80